createdAt,value
2022-08-14T00:03:08.210Z,14.38
2022-08-14T00:08:14.308Z,14.05
2022-08-14T00:13:19.689Z,14.30
2022-08-14T00:18:30.541Z,15.10
2022-08-14T00:23:53.835Z,13.45
2022-08-14T00:28:56.961Z,14.38
2022-08-14T00:34:35.355Z,15.48
2022-08-14T00:39:24.189Z,16.45
2022-08-14T00:44:32.646Z,17.00
2022-08-14T00:49:38.337Z,15.98
2022-08-14T00:54:57.982Z,15.43
2022-08-14T01:00:02.741Z,15.82
2022-08-14T01:05:07.863Z,15.98
2022-08-14T01:10:10.612Z,15.43
2022-08-14T01:15:14.807Z,18.38
2022-08-14T01:20:39.941Z,16.55
2022-08-14T01:25:43.988Z,15.95
2022-08-14T01:30:50.166Z,18.13
2022-08-14T01:36:05.355Z,16.95
2022-08-14T01:41:23.005Z,16.35
2022-08-14T01:46:39.686Z,16.42
2022-08-14T01:51:45.445Z,16.25
2022-08-14T02:02:58.624Z,16.98
2022-08-14T02:08:08.865Z,16.95
2022-08-14T02:13:12.919Z,16.25
2022-08-14T02:23:28.924Z,16.50
2022-08-14T02:28:58.554Z,16.75
2022-08-14T02:33:57.157Z,17.63
2022-08-14T02:39:00.000Z,21.23
2022-08-14T02:44:04.490Z,19.95
2022-08-14T02:49:11.691Z,20.88
2022-08-14T02:54:19.754Z,17.95
2022-08-14T02:59:33.693Z,18.77
2022-08-14T03:04:39.953Z,19.77
2022-08-14T03:10:26.438Z,22.45
2022-08-14T03:15:14.195Z,20.23
2022-08-14T03:20:19.532Z,18.48
2022-08-14T03:25:26.329Z,19.42
2022-08-14T03:30:40.040Z,17.92
2022-08-14T03:35:59.946Z,21.10
2022-08-14T03:41:14.508Z,19.90
2022-08-14T03:46:39.220Z,18.17
2022-08-14T03:51:44.024Z,20.00
2022-08-14T03:56:50.180Z,20.40
2022-08-14T04:02:01.473Z,20.92
2022-08-14T04:07:04.857Z,19.70
2022-08-14T04:17:19.151Z,18.25
2022-08-14T04:22:23.886Z,19.10
2022-08-14T04:27:27.412Z,21.95
2022-08-14T04:33:00.116Z,22.98
2022-08-14T04:38:37.330Z,18.67
2022-08-14T04:43:39.556Z,19.15
2022-08-14T04:48:47.543Z,22.33
2022-08-14T04:53:57.991Z,16.98
2022-08-14T04:59:10.474Z,15.18
2022-08-14T05:04:14.706Z,14.80
2022-08-14T05:09:21.611Z,13.98
2022-08-14T05:14:46.085Z,12.55
2022-08-14T05:21:54.200Z,13.18
2022-08-14T05:25:12.905Z,10.82
2022-08-14T05:30:18.628Z,9.55
2022-08-14T05:35:21.821Z,9.23
2022-08-14T05:40:24.282Z,10.00
2022-08-14T05:50:30.641Z,11.85
2022-08-14T05:55:33.483Z,10.52
2022-08-14T06:00:44.576Z,10.70
2022-08-14T06:05:52.084Z,11.02
2022-08-14T06:11:03.005Z,9.77
2022-08-14T06:16:07.643Z,11.65
2022-08-14T06:21:13.557Z,9.43
2022-08-14T06:26:30.195Z,8.93
2022-08-14T06:31:35.869Z,9.30
2022-08-14T06:36:39.486Z,11.52
2022-08-14T06:41:57.481Z,11.77
2022-08-14T06:47:03.117Z,9.95
2022-08-14T06:52:05.901Z,9.18
2022-08-14T06:57:10.617Z,9.32
2022-08-14T07:02:31.903Z,9.23
2022-08-14T07:07:40.207Z,8.20
2022-08-14T07:13:00.709Z,8.77
2022-08-14T07:18:08.788Z,8.90
2022-08-14T07:23:21.492Z,10.30
2022-08-14T07:28:50.360Z,7.90
2022-08-14T07:33:53.206Z,10.10
2022-08-14T07:44:02.971Z,6.85
2022-08-14T07:49:24.537Z,8.05
2022-08-14T07:54:29.909Z,7.78
2022-08-14T07:59:42.497Z,6.60
2022-08-14T08:04:59.254Z,7.28
2022-08-14T08:11:01.661Z,7.00
2022-08-14T08:16:09.134Z,6.10
2022-08-14T08:21:12.741Z,5.40
2022-08-14T08:26:16.046Z,6.57
2022-08-14T08:31:23.177Z,6.47
2022-08-14T08:36:42.561Z,6.25
2022-08-14T08:41:50.469Z,8.57
2022-08-14T08:47:06.720Z,10.95
2022-08-14T08:52:54.662Z,5.63
2022-08-14T09:10:05.635Z,7.97
2022-08-14T09:15:43.599Z,5.13
2022-08-14T09:21:10.304Z,9.25
2022-08-14T09:26:37.196Z,5.38
2022-08-14T09:31:54.607Z,5.35
2022-08-14T09:37:18.151Z,4.43
2022-08-14T09:56:01.105Z,3.92
2022-08-14T10:01:12.401Z,5.53
2022-08-14T10:11:35.075Z,3.25
2022-08-14T10:17:06.314Z,4.20
2022-08-14T10:23:14.855Z,3.65
2022-08-14T10:27:59.508Z,6.53
2022-08-14T10:33:01.765Z,3.88
2022-08-14T10:43:41.441Z,3.70
2022-08-14T10:49:02.948Z,4.05
2022-08-14T10:54:26.244Z,3.53
2022-08-14T10:59:45.825Z,4.40
2022-08-14T11:05:13.590Z,4.10
2022-08-14T11:10:17.523Z,4.22
2022-08-14T11:15:24.983Z,6.55
2022-08-14T11:20:29.986Z,3.83
2022-08-14T11:25:43.883Z,4.40
2022-08-14T11:30:56.697Z,4.80
2022-08-14T11:36:02.700Z,6.07
2022-08-14T11:41:20.580Z,4.77
2022-08-14T11:46:30.414Z,6.10
2022-08-14T11:51:53.019Z,3.97
2022-08-14T11:56:57.544Z,5.63
2022-08-14T12:03:00.247Z,6.45
2022-08-14T12:08:13.386Z,5.63
2022-08-14T12:13:23.522Z,4.85
2022-08-14T12:18:43.622Z,3.55
2022-08-14T12:23:50.541Z,4.40
2022-08-14T12:29:08.216Z,7.85
2022-08-14T12:34:12.568Z,4.32
2022-08-14T12:39:21.252Z,6.43
2022-08-14T12:44:37.316Z,8.07
2022-08-14T12:49:54.383Z,9.20
2022-08-14T12:55:06.810Z,8.38
2022-08-14T13:00:22.860Z,7.63
2022-08-14T13:05:31.421Z,8.50
2022-08-14T13:10:47.813Z,5.80
2022-08-14T13:15:57.451Z,7.18
2022-08-14T13:21:02.186Z,8.68
2022-08-14T13:26:05.028Z,6.05
2022-08-14T13:31:11.370Z,8.25
2022-08-14T13:36:24.007Z,7.32
2022-08-14T13:41:38.648Z,7.95
2022-08-14T13:46:44.556Z,6.38
2022-08-14T13:51:54.241Z,6.10
2022-08-14T13:56:57.018Z,7.55
2022-08-14T14:02:08.764Z,6.72
2022-08-14T14:07:21.844Z,6.35
2022-08-14T14:12:38.247Z,8.27
2022-08-14T14:17:44.995Z,7.47
2022-08-14T14:23:02.493Z,16.52
2022-08-14T14:28:06.845Z,9.68
2022-08-14T14:33:28.921Z,10.32
2022-08-14T14:38:34.094Z,9.60
2022-08-14T14:43:45.146Z,11.25
2022-08-14T14:48:54.730Z,11.20
2022-08-14T14:54:01.964Z,11.73
2022-08-14T14:59:07.664Z,12.68
2022-08-14T15:04:20.160Z,14.35
2022-08-14T15:09:23.894Z,13.15
2022-08-14T15:14:56.605Z,13.52
2022-08-14T15:19:56.395Z,12.60
2022-08-14T15:24:59.464Z,15.30
2022-08-14T15:30:06.651Z,13.38
2022-08-14T15:35:11.980Z,11.68
2022-08-14T15:40:21.910Z,13.63
2022-08-14T15:45:25.847Z,11.30
2022-08-14T15:50:30.585Z,10.82
2022-08-14T15:55:32.933Z,14.65
2022-08-14T16:00:55.497Z,16.27
2022-08-14T16:11:05.785Z,13.35
2022-08-14T16:16:34.736Z,12.50
2022-08-14T16:21:34.839Z,21.08
2022-08-14T16:26:43.068Z,15.93
2022-08-14T16:31:47.571Z,13.57
2022-08-14T16:36:51.016Z,11.13
2022-08-14T16:41:53.722Z,14.98
2022-08-14T16:46:57.522Z,13.68
2022-08-14T16:52:03.772Z,13.45
2022-08-14T16:57:26.174Z,11.20
2022-08-14T17:02:36.812Z,18.48
2022-08-14T17:08:28.521Z,20.58
2022-08-14T17:13:57.758Z,27.13
2022-08-14T17:19:00.735Z,49.47
2022-08-14T17:29:34.287Z,30.70
2022-08-14T17:34:48.082Z,16.00
2022-08-14T17:40:15.071Z,11.43
2022-08-14T17:45:26.782Z,10.02
2022-08-14T17:50:59.743Z,9.73
2022-08-14T17:56:51.515Z,18.48
2022-08-14T18:01:54.449Z,31.42
2022-08-14T18:07:16.114Z,22.23
2022-08-14T18:12:31.515Z,19.50
2022-08-14T18:17:37.260Z,62.80
2022-08-14T18:22:49.120Z,53.88
2022-08-14T18:27:57.199Z,25.43
2022-08-14T18:33:21.207Z,25.10
2022-08-14T18:38:46.169Z,108.85
2022-08-14T18:44:17.658Z,89.28
2022-08-14T18:49:19.974Z,110.05
2022-08-14T18:54:30.009Z,129.68
2022-08-14T18:59:39.284Z,94.63
2022-08-14T19:04:44.824Z,31.48
2022-08-14T19:10:01.112Z,20.77
2022-08-14T19:15:12.279Z,16.65
2022-08-14T19:20:20.132Z,14.27
2022-08-14T19:25:48.194Z,14.60
2022-08-14T19:31:41.938Z,17.60
2022-08-14T19:37:05.280Z,18.42
2022-08-14T19:42:10.563Z,16.70
2022-08-14T19:47:15.457Z,15.07
2022-08-14T19:57:33.442Z,12.85
2022-08-14T20:02:37.440Z,16.35
2022-08-14T20:07:59.135Z,14.50
2022-08-14T20:13:10.026Z,14.95
2022-08-14T20:18:45.873Z,15.00
2022-08-14T20:23:38.944Z,15.65
2022-08-14T20:28:51.409Z,15.30
2022-08-14T20:34:18.903Z,15.45
2022-08-14T20:39:27.140Z,15.52
2022-08-14T20:45:03.955Z,17.30
2022-08-14T20:50:28.568Z,16.17
2022-08-14T20:55:41.805Z,17.88
2022-08-14T21:00:57.736Z,15.93
2022-08-14T21:06:17.441Z,20.45
2022-08-14T21:11:24.940Z,27.20
2022-08-14T21:16:35.081Z,23.58
2022-08-14T21:21:54.613Z,20.08
2022-08-14T21:27:13.241Z,20.10
2022-08-14T21:32:50.201Z,22.33
2022-08-14T21:38:00.482Z,24.23
2022-08-14T21:43:02.752Z,20.30
2022-08-14T21:48:10.540Z,17.88
2022-08-14T21:53:14.630Z,20.38
2022-08-14T21:58:53.010Z,19.70
2022-08-14T22:03:44.893Z,18.67
2022-08-14T22:08:52.846Z,17.70
2022-08-14T22:13:56.430Z,21.55
2022-08-14T22:19:10.486Z,18.88
2022-08-14T22:24:25.905Z,19.65
2022-08-14T22:29:42.134Z,21.27
2022-08-14T22:34:48.545Z,19.88
2022-08-14T22:40:46.398Z,25.58
2022-08-14T22:45:17.043Z,21.15
2022-08-14T22:50:31.559Z,20.73
2022-08-14T22:55:40.422Z,18.30
2022-08-14T23:00:43.955Z,17.88
2022-08-14T23:05:51.731Z,17.95
2022-08-14T23:10:56.674Z,16.60
2022-08-14T23:16:01.001Z,13.70
2022-08-14T23:21:10.193Z,19.13
2022-08-14T23:26:47.262Z,15.13
2022-08-14T23:31:36.411Z,16.07
2022-08-14T23:36:53.989Z,20.33
2022-08-14T23:42:07.381Z,20.35
2022-08-14T23:47:25.407Z,20.20
2022-08-14T23:52:57.476Z,16.85
2022-08-14T23:57:58.283Z,20.10
